sensor_id;sensor_type;location;lat;lon;timestamp;P1;durP1;ratioP1;P2;durP2;ratioP2
49450;SDS011;35336;48.400;10.886;2024-02-21T00:00:07;6.28;;;3.03;;
49450;SDS011;35336;48.400;10.886;2024-02-21T00:00:25;6.22;;;2.80;;
49450;SDS011;35336;48.400;10.886;2024-02-21T00:00:43;7.83;;;2.80;;
49450;SDS011;35336;48.400;10.886;2024-02-21T00:00:58;8.50;;;2.70;;
49450;SDS011;35336;48.400;10.886;2024-02-21T00:01:14;7.40;;;2.67;;
49450;SDS011;35336;48.400;10.886;2024-02-21T00:01:30;8.63;;;2.97;;
49450;SDS011;35336;48.400;10.886;2024-02-21T00:01:45;8.80;;;3.07;;
49450;SDS011;35336;48.400;10.886;2024-02-21T00:02:01;7.43;;;2.90;;
49450;SDS011;35336;48.400;10.886;2024-02-21T00:02:16;8.57;;;2.83;;
49450;SDS011;35336;48.400;10.886;2024-02-21T00:02:31;8.33;;;2.70;;
49450;SDS011;35336;48.400;10.886;2024-02-21T00:02:46;6.80;;;2.60;;
49450;SDS011;35336;48.400;10.886;2024-02-21T00:03:02;7.43;;;2.80;;
49450;SDS011;35336;48.400;10.886;2024-02-21T00:03:20;8.15;;;2.92;;
49450;SDS011;35336;48.400;10.886;2024-02-21T00:03:35;9.57;;;3.10;;
49450;SDS011;35336;48.400;10.886;2024-02-21T00:03:50;9.85;;;3.13;;
49450;SDS011;35336;48.400;10.886;2024-02-21T00:04:06;8.00;;;2.90;;
49450;SDS011;35336;48.400;10.886;2024-02-21T00:04:21;8.40;;;2.97;;
49450;SDS011;35336;48.400;10.886;2024-02-21T00:04:38;7.15;;;3.10;;
49450;SDS011;35336;48.400;10.886;2024-02-21T00:04:54;7.40;;;2.83;;
49450;SDS011;35336;48.400;10.886;2024-02-21T00:05:09;8.47;;;2.70;;
49450;SDS011;35336;48.400;10.886;2024-02-21T00:05:24;7.70;;;2.77;;
49450;SDS011;35336;48.400;10.886;2024-02-21T00:05:39;6.90;;;2.90;;
49450;SDS011;35336;48.400;10.886;2024-02-21T00:05:55;7.30;;;2.83;;
49450;SDS011;35336;48.400;10.886;2024-02-21T00:06:12;8.68;;;2.78;;
49450;SDS011;35336;48.400;10.886;2024-02-21T00:06:30;8.77;;;2.67;;
49450;SDS011;35336;48.400;10.886;2024-02-21T00:06:45;10.15;;;3.05;;
49450;SDS011;35336;48.400;10.886;2024-02-21T00:07:01;11.77;;;3.60;;
49450;SDS011;35336;48.400;10.886;2024-02-21T00:07:16;10.67;;;3.50;;
49450;SDS011;35336;48.400;10.886;2024-02-21T00:07:31;10.02;;;3.38;;
49450;SDS011;35336;48.400;10.886;2024-02-21T00:07:46;10.67;;;3.00;;
49450;SDS011;35336;48.400;10.886;2024-02-21T00:08:02;8.83;;;2.67;;
49450;SDS011;35336;48.400;10.886;2024-02-21T00:08:17;8.80;;;2.58;;
49450;SDS011;35336;48.400;10.886;2024-02-21T00:08:33;10.10;;;2.70;;
49450;SDS011;35336;48.400;10.886;2024-02-21T00:08:48;8.67;;;2.77;;
49450;SDS011;35336;48.400;10.886;2024-02-21T00:09:03;9.63;;;3.10;;
49450;SDS011;35336;48.400;10.886;2024-02-21T00:09:18;9.88;;;3.20;;
49450;SDS011;35336;48.400;10.886;2024-02-21T00:09:34;8.57;;;2.90;;
49450;SDS011;35336;48.400;10.886;2024-02-21T00:09:49;8.13;;;2.93;;
49450;SDS011;35336;48.400;10.886;2024-02-21T00:10:04;7.13;;;2.90;;
49450;SDS011;35336;48.400;10.886;2024-02-21T00:10:20;6.93;;;2.70;;
49450;SDS011;35336;48.400;10.886;2024-02-21T00:10:35;7.73;;;2.93;;
49450;SDS011;35336;48.400;10.886;2024-02-21T00:10:50;8.37;;;3.20;;
49450;SDS011;35336;48.400;10.886;2024-02-21T00:11:06;9.38;;;3.10;;
49450;SDS011;35336;48.400;10.886;2024-02-21T00:11:21;9.60;;;3.00;;
49450;SDS011;35336;48.400;10.886;2024-02-21T00:11:36;7.50;;;2.93;;
49450;SDS011;35336;48.400;10.886;2024-02-21T00:11:52;8.10;;;3.03;;
49450;SDS011;35336;48.400;10.886;2024-02-21T00:12:07;9.80;;;2.90;;
49450;SDS011;35336;48.400;10.886;2024-02-21T00:12:22;9.57;;;2.60;;
49450;SDS011;35336;48.400;10.886;2024-02-21T00:12:38;8.87;;;2.80;;
49450;SDS011;35336;48.400;10.886;2024-02-21T00:12:53;9.17;;;3.20;;
49450;SDS011;35336;48.400;10.886;2024-02-21T00:13:08;8.07;;;3.00;;
49450;SDS011;35336;48.400;10.886;2024-02-21T00:13:23;6.80;;;2.80;;
49450;SDS011;35336;48.400;10.886;2024-02-21T00:13:39;7.93;;;2.80;;
49450;SDS011;35336;48.400;10.886;2024-02-21T00:13:54;7.83;;;2.70;;
49450;SDS011;35336;48.400;10.886;2024-02-21T00:14:12;7.90;;;2.72;;
49450;SDS011;35336;48.400;10.886;2024-02-21T00:14:27;7.82;;;2.75;;
49450;SDS011;35336;48.400;10.886;2024-02-21T00:14:42;7.57;;;2.83;;
49450;SDS011;35336;48.400;10.886;2024-02-21T00:15:00;8.52;;;2.90;;
49450;SDS011;35336;48.400;10.886;2024-02-21T00:15:16;6.97;;;2.80;;
49450;SDS011;35336;48.400;10.886;2024-02-21T00:15:31;7.70;;;3.00;;
49450;SDS011;35336;48.400;10.886;2024-02-21T00:15:46;8.17;;;2.90;;
49450;SDS011;35336;48.400;10.886;2024-02-21T00:16:01;7.37;;;2.70;;
49450;SDS011;35336;48.400;10.886;2024-02-21T00:16:17;7.68;;;2.90;;
49450;SDS011;35336;48.400;10.886;2024-02-21T00:16:34;8.40;;;3.23;;
49450;SDS011;35336;48.400;10.886;2024-02-21T00:16:50;9.80;;;3.33;;
49450;SDS011;35336;48.400;10.886;2024-02-21T00:17:05;9.47;;;3.10;;
49450;SDS011;35336;48.400;10.886;2024-02-21T00:17:20;9.97;;;3.13;;
49450;SDS011;35336;48.400;10.886;2024-02-21T00:17:35;9.23;;;3.00;;
49450;SDS011;35336;48.400;10.886;2024-02-21T00:17:53;7.47;;;2.80;;
49450;SDS011;35336;48.400;10.886;2024-02-21T00:18:08;7.40;;;2.75;;
49450;SDS011;35336;48.400;10.886;2024-02-21T00:18:24;7.10;;;2.60;;
49450;SDS011;35336;48.400;10.886;2024-02-21T00:18:41;8.73;;;2.70;;
49450;SDS011;35336;48.400;10.886;2024-02-21T00:18:57;9.55;;;2.83;;
49450;SDS011;35336;48.400;10.886;2024-02-21T00:19:12;10.07;;;3.08;;
49450;SDS011;35336;48.400;10.886;2024-02-21T00:19:27;9.83;;;3.17;;
49450;SDS011;35336;48.400;10.886;2024-02-21T00:19:45;7.90;;;3.00;;
49450;SDS011;35336;48.400;10.886;2024-02-21T00:20:00;8.60;;;2.90;;
49450;SDS011;35336;48.400;10.886;2024-02-21T00:20:15;8.82;;;3.00;;
49450;SDS011;35336;48.400;10.886;2024-02-21T00:20:31;9.10;;;3.00;;
49450;SDS011;35336;48.400;10.886;2024-02-21T00:20:47;9.13;;;2.85;;
49450;SDS011;35336;48.400;10.886;2024-02-21T00:21:02;8.60;;;2.90;;
49450;SDS011;35336;48.400;10.886;2024-02-21T00:21:17;7.90;;;2.77;;
49450;SDS011;35336;48.400;10.886;2024-02-21T00:21:33;7.60;;;2.72;;
49450;SDS011;35336;48.400;10.886;2024-02-21T00:21:48;6.93;;;2.73;;
49450;SDS011;35336;48.400;10.886;2024-02-21T00:22:05;8.95;;;2.83;;
49450;SDS011;35336;48.400;10.886;2024-02-21T00:22:21;8.95;;;3.00;;
49450;SDS011;35336;48.400;10.886;2024-02-21T00:22:36;6.07;;;2.83;;
49450;SDS011;35336;48.400;10.886;2024-02-21T00:22:51;7.23;;;2.60;;
49450;SDS011;35336;48.400;10.886;2024-02-21T00:23:07;8.53;;;2.63;;
49450;SDS011;35336;48.400;10.886;2024-02-21T00:23:22;8.10;;;2.70;;
49450;SDS011;35336;48.400;10.886;2024-02-21T00:23:37;8.80;;;2.70;;
49450;SDS011;35336;48.400;10.886;2024-02-21T00:23:52;10.63;;;2.67;;
49450;SDS011;35336;48.400;10.886;2024-02-21T00:24:08;10.70;;;2.67;;
49450;SDS011;35336;48.400;10.886;2024-02-21T00:24:23;8.80;;;2.70;;
49450;SDS011;35336;48.400;10.886;2024-02-21T00:24:38;7.65;;;2.50;;
49450;SDS011;35336;48.400;10.886;2024-02-21T00:24:53;8.23;;;2.70;;
49450;SDS011;35336;48.400;10.886;2024-02-21T00:25:09;8.70;;;3.00;;
49450;SDS011;35336;48.400;10.886;2024-02-21T00:25:24;8.48;;;2.90;;
49450;SDS011;35336;48.400;10.886;2024-02-21T00:25:39;8.73;;;3.08;;
49450;SDS011;35336;48.400;10.886;2024-02-21T00:25:55;10.33;;;3.20;;
49450;SDS011;35336;48.400;10.886;2024-02-21T00:26:10;10.60;;;2.90;;
49450;SDS011;35336;48.400;10.886;2024-02-21T00:26:27;8.67;;;2.90;;
49450;SDS011;35336;48.400;10.886;2024-02-21T00:26:45;7.13;;;2.90;;
49450;SDS011;35336;48.400;10.886;2024-02-21T00:27:00;7.53;;;2.73;;
49450;SDS011;35336;48.400;10.886;2024-02-21T00:27:16;7.43;;;2.85;;
49450;SDS011;35336;48.400;10.886;2024-02-21T00:27:31;8.87;;;2.90;;
49450;SDS011;35336;48.400;10.886;2024-02-21T00:27:46;8.27;;;2.73;;
49450;SDS011;35336;48.400;10.886;2024-02-21T00:28:01;5.83;;;2.70;;
49450;SDS011;35336;48.400;10.886;2024-02-21T00:28:17;6.70;;;2.72;;
49450;SDS011;35336;48.400;10.886;2024-02-21T00:28:35;5.95;;;2.58;;
49450;SDS011;35336;48.400;10.886;2024-02-21T00:28:52;6.68;;;2.58;;
49450;SDS011;35336;48.400;10.886;2024-02-21T00:29:10;7.03;;;2.90;;
49450;SDS011;35336;48.400;10.886;2024-02-21T00:29:28;7.18;;;3.05;;
49450;SDS011;35336;48.400;10.886;2024-02-21T00:29:43;7.15;;;2.85;;
49450;SDS011;35336;48.400;10.886;2024-02-21T00:29:59;6.20;;;2.60;;
49450;SDS011;35336;48.400;10.886;2024-02-21T00:30:14;7.20;;;2.63;;
49450;SDS011;35336;48.400;10.886;2024-02-21T00:30:29;7.65;;;2.70;;
49450;SDS011;35336;48.400;10.886;2024-02-21T00:30:47;6.57;;;2.80;;
49450;SDS011;35336;48.400;10.886;2024-02-21T00:31:04;6.77;;;2.67;;
49450;SDS011;35336;48.400;10.886;2024-02-21T00:31:19;8.35;;;2.95;;
49450;SDS011;35336;48.400;10.886;2024-02-21T00:31:35;9.97;;;3.00;;
49450;SDS011;35336;48.400;10.886;2024-02-21T00:31:50;8.57;;;2.80;;
49450;SDS011;35336;48.400;10.886;2024-02-21T00:32:05;7.67;;;2.70;;
49450;SDS011;35336;48.400;10.886;2024-02-21T00:32:21;7.65;;;2.65;;
49450;SDS011;35336;48.400;10.886;2024-02-21T00:32:36;7.40;;;2.80;;
49450;SDS011;35336;48.400;10.886;2024-02-21T00:32:51;6.97;;;2.73;;
49450;SDS011;35336;48.400;10.886;2024-02-21T00:33:06;8.07;;;2.70;;
49450;SDS011;35336;48.400;10.886;2024-02-21T00:33:22;8.15;;;2.75;;
49450;SDS011;35336;48.400;10.886;2024-02-21T00:33:37;6.97;;;2.67;;
49450;SDS011;35336;48.400;10.886;2024-02-21T00:33:52;8.80;;;2.60;;
49450;SDS011;35336;48.400;10.886;2024-02-21T00:34:07;7.80;;;2.53;;
49450;SDS011;35336;48.400;10.886;2024-02-21T00:34:23;6.53;;;2.50;;
49450;SDS011;35336;48.400;10.886;2024-02-21T00:34:38;7.28;;;2.50;;
49450;SDS011;35336;48.400;10.886;2024-02-21T00:34:53;7.17;;;2.50;;
49450;SDS011;35336;48.400;10.886;2024-02-21T00:35:09;6.67;;;2.60;;
49450;SDS011;35336;48.400;10.886;2024-02-21T00:35:24;6.57;;;2.70;;
49450;SDS011;35336;48.400;10.886;2024-02-21T00:35:39;8.20;;;2.72;;
49450;SDS011;35336;48.400;10.886;2024-02-21T00:35:54;9.77;;;3.20;;
49450;SDS011;35336;48.400;10.886;2024-02-21T00:36:10;9.27;;;3.30;;
49450;SDS011;35336;48.400;10.886;2024-02-21T00:36:25;9.07;;;2.80;;
49450;SDS011;35336;48.400;10.886;2024-02-21T00:36:40;9.05;;;2.75;;
49450;SDS011;35336;48.400;10.886;2024-02-21T00:36:55;8.20;;;2.70;;
49450;SDS011;35336;48.400;10.886;2024-02-21T00:37:11;10.43;;;2.67;;
49450;SDS011;35336;48.400;10.886;2024-02-21T00:37:28;11.10;;;2.77;;
49450;SDS011;35336;48.400;10.886;2024-02-21T00:37:43;8.55;;;2.80;;
49450;SDS011;35336;48.400;10.886;2024-02-21T00:38:01;7.90;;;2.70;;
49450;SDS011;35336;48.400;10.886;2024-02-21T00:38:16;8.95;;;2.75;;
49450;SDS011;35336;48.400;10.886;2024-02-21T00:38:31;7.53;;;2.50;;
49450;SDS011;35336;48.400;10.886;2024-02-21T00:38:47;7.20;;;2.60;;
49450;SDS011;35336;48.400;10.886;2024-02-21T00:39:02;6.93;;;2.70;;
49450;SDS011;35336;48.400;10.886;2024-02-21T00:39:19;7.73;;;2.90;;
49450;SDS011;35336;48.400;10.886;2024-02-21T00:39:35;8.98;;;3.05;;
49450;SDS011;35336;48.400;10.886;2024-02-21T00:39:50;7.25;;;2.78;;
49450;SDS011;35336;48.400;10.886;2024-02-21T00:40:05;5.57;;;2.40;;
49450;SDS011;35336;48.400;10.886;2024-02-21T00:40:21;7.27;;;2.63;;
49450;SDS011;35336;48.400;10.886;2024-02-21T00:40:36;7.70;;;2.80;;
49450;SDS011;35336;48.400;10.886;2024-02-21T00:40:51;5.87;;;2.43;;
49450;SDS011;35336;48.400;10.886;2024-02-21T00:41:07;6.10;;;2.40;;
49450;SDS011;35336;48.400;10.886;2024-02-21T00:41:22;8.37;;;2.60;;
49450;SDS011;35336;48.400;10.886;2024-02-21T00:41:37;7.70;;;2.75;;
49450;SDS011;35336;48.400;10.886;2024-02-21T00:41:52;7.40;;;2.90;;
49450;SDS011;35336;48.400;10.886;2024-02-21T00:42:08;8.20;;;2.90;;
49450;SDS011;35336;48.400;10.886;2024-02-21T00:42:23;9.47;;;3.07;;
49450;SDS011;35336;48.400;10.886;2024-02-21T00:42:38;10.20;;;3.00;;
49450;SDS011;35336;48.400;10.886;2024-02-21T00:42:56;8.60;;;2.78;;
49450;SDS011;35336;48.400;10.886;2024-02-21T00:43:11;6.73;;;2.53;;
49450;SDS011;35336;48.400;10.886;2024-02-21T00:43:27;7.05;;;2.58;;
49450;SDS011;35336;48.400;10.886;2024-02-21T00:43:42;7.73;;;2.73;;
49450;SDS011;35336;48.400;10.886;2024-02-21T00:43:57;9.40;;;2.73;;
49450;SDS011;35336;48.400;10.886;2024-02-21T00:44:12;11.77;;;2.87;;
49450;SDS011;35336;48.400;10.886;2024-02-21T00:44:28;11.35;;;3.00;;
49450;SDS011;35336;48.400;10.886;2024-02-21T00:44:45;9.40;;;2.93;;
49450;SDS011;35336;48.400;10.886;2024-02-21T00:45:01;8.00;;;2.90;;
49450;SDS011;35336;48.400;10.886;2024-02-21T00:45:16;8.27;;;2.70;;
49450;SDS011;35336;48.400;10.886;2024-02-21T00:45:31;9.77;;;2.60;;
49450;SDS011;35336;48.400;10.886;2024-02-21T00:45:46;8.73;;;2.60;;
49450;SDS011;35336;48.400;10.886;2024-02-21T00:46:02;7.70;;;2.90;;
49450;SDS011;35336;48.400;10.886;2024-02-21T00:46:17;7.72;;;3.20;;
49450;SDS011;35336;48.400;10.886;2024-02-21T00:46:32;7.77;;;3.00;;
49450;SDS011;35336;48.400;10.886;2024-02-21T00:46:48;7.80;;;2.70;;
49450;SDS011;35336;48.400;10.886;2024-02-21T00:47:03;7.27;;;2.60;;
49450;SDS011;35336;48.400;10.886;2024-02-21T00:47:18;6.40;;;2.58;;
49450;SDS011;35336;48.400;10.886;2024-02-21T00:47:33;7.03;;;2.60;;
49450;SDS011;35336;48.400;10.886;2024-02-21T00:47:49;7.80;;;2.60;;
49450;SDS011;35336;48.400;10.886;2024-02-21T00:48:07;7.27;;;2.50;;
49450;SDS011;35336;48.400;10.886;2024-02-21T00:48:22;6.07;;;2.30;;
49450;SDS011;35336;48.400;10.886;2024-02-21T00:48:39;6.03;;;2.43;;
49450;SDS011;35336;48.400;10.886;2024-02-21T00:48:55;7.60;;;2.70;;
49450;SDS011;35336;48.400;10.886;2024-02-21T00:49:10;6.37;;;2.60;;
49450;SDS011;35336;48.400;10.886;2024-02-21T00:49:25;6.33;;;2.40;;
49450;SDS011;35336;48.400;10.886;2024-02-21T00:49:40;7.27;;;2.40;;
49450;SDS011;35336;48.400;10.886;2024-02-21T00:49:58;8.10;;;3.22;;
49450;SDS011;35336;48.400;10.886;2024-02-21T00:50:13;9.63;;;3.20;;
49450;SDS011;35336;48.400;10.886;2024-02-21T00:50:29;8.00;;;2.60;;
49450;SDS011;35336;48.400;10.886;2024-02-21T00:50:44;6.82;;;2.47;;
49450;SDS011;35336;48.400;10.886;2024-02-21T00:51:00;7.43;;;2.40;;
49450;SDS011;35336;48.400;10.886;2024-02-21T00:51:15;7.45;;;2.70;;
49450;SDS011;35336;48.400;10.886;2024-02-21T00:51:31;6.53;;;2.80;;
49450;SDS011;35336;48.400;10.886;2024-02-21T00:51:46;6.67;;;2.77;;
49450;SDS011;35336;48.400;10.886;2024-02-21T00:52:02;7.25;;;2.75;;
49450;SDS011;35336;48.400;10.886;2024-02-21T00:52:17;7.80;;;2.60;;
49450;SDS011;35336;48.400;10.886;2024-02-21T00:52:33;9.73;;;2.60;;
49450;SDS011;35336;48.400;10.886;2024-02-21T00:52:48;8.40;;;2.53;;
49450;SDS011;35336;48.400;10.886;2024-02-21T00:53:03;5.60;;;2.58;;
49450;SDS011;35336;48.400;10.886;2024-02-21T00:53:19;5.47;;;2.80;;
49450;SDS011;35336;48.400;10.886;2024-02-21T00:53:34;7.03;;;2.73;;
49450;SDS011;35336;48.400;10.886;2024-02-21T00:53:49;8.53;;;2.70;;
49450;SDS011;35336;48.400;10.886;2024-02-21T00:54:04;8.50;;;2.63;;
49450;SDS011;35336;48.400;10.886;2024-02-21T00:54:23;8.48;;;2.55;;
49450;SDS011;35336;48.400;10.886;2024-02-21T00:54:38;8.48;;;2.50;;
49450;SDS011;35336;48.400;10.886;2024-02-21T00:54:55;8.30;;;2.60;;
49450;SDS011;35336;48.400;10.886;2024-02-21T00:55:11;8.18;;;2.65;;
49450;SDS011;35336;48.400;10.886;2024-02-21T00:55:26;8.67;;;2.60;;
49450;SDS011;35336;48.400;10.886;2024-02-21T00:55:41;8.23;;;2.70;;
49450;SDS011;35336;48.400;10.886;2024-02-21T00:55:57;7.93;;;2.97;;
49450;SDS011;35336;48.400;10.886;2024-02-21T00:56:12;7.72;;;2.88;;
49450;SDS011;35336;48.400;10.886;2024-02-21T00:56:27;6.07;;;2.40;;
49450;SDS011;35336;48.400;10.886;2024-02-21T00:56:42;6.07;;;2.20;;
49450;SDS011;35336;48.400;10.886;2024-02-21T00:56:58;8.10;;;2.40;;
49450;SDS011;35336;48.400;10.886;2024-02-21T00:57:13;9.23;;;2.80;;
49450;SDS011;35336;48.400;10.886;2024-02-21T00:57:28;8.77;;;3.00;;
49450;SDS011;35336;48.400;10.886;2024-02-21T00:57:44;8.57;;;2.90;;
49450;SDS011;35336;48.400;10.886;2024-02-21T00:57:59;8.57;;;2.73;;
49450;SDS011;35336;48.400;10.886;2024-02-21T00:58:14;8.77;;;2.60;;
49450;SDS011;35336;48.400;10.886;2024-02-21T00:58:29;6.13;;;2.40;;
49450;SDS011;35336;48.400;10.886;2024-02-21T00:58:45;6.07;;;2.70;;
49450;SDS011;35336;48.400;10.886;2024-02-21T00:59:00;7.60;;;2.87;;
49450;SDS011;35336;48.400;10.886;2024-02-21T00:59:15;7.40;;;2.50;;
49450;SDS011;35336;48.400;10.886;2024-02-21T00:59:30;7.38;;;2.42;;
49450;SDS011;35336;48.400;10.886;2024-02-21T00:59:46;7.33;;;2.60;;
49450;SDS011;35336;48.400;10.886;2024-02-21T01:00:03;8.77;;;2.77;;
49450;SDS011;35336;48.400;10.886;2024-02-21T01:00:21;8.35;;;2.70;;
49450;SDS011;35336;48.400;10.886;2024-02-21T01:00:37;7.63;;;2.50;;
49450;SDS011;35336;48.400;10.886;2024-02-21T01:00:52;8.70;;;2.73;;
49450;SDS011;35336;48.400;10.886;2024-02-21T01:01:07;8.50;;;2.70;;
49450;SDS011;35336;48.400;10.886;2024-02-21T01:01:25;8.97;;;2.50;;
49450;SDS011;35336;48.400;10.886;2024-02-21T01:01:41;9.25;;;2.63;;
49450;SDS011;35336;48.400;10.886;2024-02-21T01:01:56;9.50;;;2.60;;
49450;SDS011;35336;48.400;10.886;2024-02-21T01:02:11;7.77;;;2.40;;
49450;SDS011;35336;48.400;10.886;2024-02-21T01:02:27;6.10;;;2.30;;
49450;SDS011;35336;48.400;10.886;2024-02-21T01:02:44;6.20;;;2.53;;
49450;SDS011;35336;48.400;10.886;2024-02-21T01:03:00;7.47;;;3.00;;
49450;SDS011;35336;48.400;10.886;2024-02-21T01:03:15;10.13;;;3.10;;
49450;SDS011;35336;48.400;10.886;2024-02-21T01:03:30;10.70;;;2.67;;
49450;SDS011;35336;48.400;10.886;2024-02-21T01:03:45;9.07;;;2.53;;
49450;SDS011;35336;48.400;10.886;2024-02-21T01:04:01;8.67;;;2.73;;
49450;SDS011;35336;48.400;10.886;2024-02-21T01:04:16;8.70;;;2.73;;
49450;SDS011;35336;48.400;10.886;2024-02-21T01:04:31;7.80;;;2.70;;
49450;SDS011;35336;48.400;10.886;2024-02-21T01:04:46;8.10;;;2.80;;
49450;SDS011;35336;48.400;10.886;2024-02-21T01:05:02;7.77;;;2.63;;
49450;SDS011;35336;48.400;10.886;2024-02-21T01:05:19;7.57;;;2.60;;
49450;SDS011;35336;48.400;10.886;2024-02-21T01:05:35;6.28;;;2.55;;
49450;SDS011;35336;48.400;10.886;2024-02-21T01:05:50;5.67;;;2.47;;
49450;SDS011;35336;48.400;10.886;2024-02-21T01:06:07;7.57;;;2.57;;
49450;SDS011;35336;48.400;10.886;2024-02-21T01:06:22;9.90;;;2.60;;
49450;SDS011;35336;48.400;10.886;2024-02-21T01:06:38;9.93;;;2.60;;
49450;SDS011;35336;48.400;10.886;2024-02-21T01:06:53;8.40;;;2.80;;
49450;SDS011;35336;48.400;10.886;2024-02-21T01:07:08;8.07;;;3.30;;
49450;SDS011;35336;48.400;10.886;2024-02-21T01:07:23;6.90;;;3.10;;
49450;SDS011;35336;48.400;10.886;2024-02-21T01:07:41;8.85;;;3.00;;
49450;SDS011;35336;48.400;10.886;2024-02-21T01:07:56;9.20;;;2.90;;
49450;SDS011;35336;48.400;10.886;2024-02-21T01:08:11;6.97;;;2.70;;
49450;SDS011;35336;48.400;10.886;2024-02-21T01:08:27;7.87;;;2.63;;
49450;SDS011;35336;48.400;10.886;2024-02-21T01:08:42;8.03;;;2.70;;
49450;SDS011;35336;48.400;10.886;2024-02-21T01:08:57;8.75;;;2.72;;
49450;SDS011;35336;48.400;10.886;2024-02-21T01:09:12;9.43;;;2.60;;
49450;SDS011;35336;48.400;10.886;2024-02-21T01:09:28;7.53;;;2.57;;
49450;SDS011;35336;48.400;10.886;2024-02-21T01:09:43;7.23;;;2.57;;
49450;SDS011;35336;48.400;10.886;2024-02-21T01:10:00;9.17;;;2.63;;
49450;SDS011;35336;48.400;10.886;2024-02-21T01:10:18;8.63;;;2.60;;
49450;SDS011;35336;48.400;10.886;2024-02-21T01:10:33;7.72;;;2.45;;
49450;SDS011;35336;48.400;10.886;2024-02-21T01:10:49;7.70;;;2.43;;
49450;SDS011;35336;48.400;10.886;2024-02-21T01:11:06;8.02;;;2.58;;
49450;SDS011;35336;48.400;10.886;2024-02-21T01:11:21;7.78;;;2.47;;
49450;SDS011;35336;48.400;10.886;2024-02-21T01:11:37;7.00;;;2.40;;
49450;SDS011;35336;48.400;10.886;2024-02-21T01:11:52;9.40;;;2.80;;
49450;SDS011;35336;48.400;10.886;2024-02-21T01:12:07;8.93;;;2.77;;
49450;SDS011;35336;48.400;10.886;2024-02-21T01:12:22;6.13;;;2.70;;
49450;SDS011;35336;48.400;10.886;2024-02-21T01:12:38;7.32;;;2.65;;
49450;SDS011;35336;48.400;10.886;2024-02-21T01:12:53;9.47;;;2.50;;
49450;SDS011;35336;48.400;10.886;2024-02-21T01:13:08;9.17;;;2.53;;
49450;SDS011;35336;48.400;10.886;2024-02-21T01:13:24;8.50;;;2.50;;
49450;SDS011;35336;48.400;10.886;2024-02-21T01:13:39;8.27;;;2.83;;
49450;SDS011;35336;48.400;10.886;2024-02-21T01:13:57;7.38;;;2.80;;
49450;SDS011;35336;48.400;10.886;2024-02-21T01:14:12;7.18;;;2.42;;
49450;SDS011;35336;48.400;10.886;2024-02-21T01:14:30;7.57;;;2.70;;
49450;SDS011;35336;48.400;10.886;2024-02-21T01:14:45;7.83;;;2.87;;
49450;SDS011;35336;48.400;10.886;2024-02-21T01:15:03;7.00;;;2.50;;
49450;SDS011;35336;48.400;10.886;2024-02-21T01:15:18;6.78;;;2.42;;
49450;SDS011;35336;48.400;10.886;2024-02-21T01:15:36;6.33;;;2.53;;
49450;SDS011;35336;48.400;10.886;2024-02-21T01:15:51;5.85;;;2.70;;
49450;SDS011;35336;48.400;10.886;2024-02-21T01:16:07;6.80;;;2.80;;
49450;SDS011;35336;48.400;10.886;2024-02-21T01:16:22;8.70;;;2.60;;
49450;SDS011;35336;48.400;10.886;2024-02-21T01:16:37;8.47;;;2.50;;
49450;SDS011;35336;48.400;10.886;2024-02-21T01:16:52;7.90;;;2.67;;
49450;SDS011;35336;48.400;10.886;2024-02-21T01:17:08;7.43;;;2.63;;
49450;SDS011;35336;48.400;10.886;2024-02-21T01:17:23;7.17;;;2.50;;
49450;SDS011;35336;48.400;10.886;2024-02-21T01:17:38;7.17;;;2.57;;
49450;SDS011;35336;48.400;10.886;2024-02-21T01:17:54;6.70;;;2.50;;
49450;SDS011;35336;48.400;10.886;2024-02-21T01:18:09;5.72;;;2.45;;
49450;SDS011;35336;48.400;10.886;2024-02-21T01:18:24;6.13;;;2.57;;
49450;SDS011;35336;48.400;10.886;2024-02-21T01:18:39;7.80;;;2.90;;
49450;SDS011;35336;48.400;10.886;2024-02-21T01:18:55;8.50;;;2.93;;
49450;SDS011;35336;48.400;10.886;2024-02-21T01:19:10;9.38;;;2.70;;
49450;SDS011;35336;48.400;10.886;2024-02-21T01:19:25;8.80;;;2.80;;
49450;SDS011;35336;48.400;10.886;2024-02-21T01:19:40;6.97;;;2.80;;
49450;SDS011;35336;48.400;10.886;2024-02-21T01:19:56;8.00;;;2.70;;
49450;SDS011;35336;48.400;10.886;2024-02-21T01:20:11;8.75;;;2.85;;
49450;SDS011;35336;48.400;10.886;2024-02-21T01:20:29;6.50;;;2.80;;
49450;SDS011;35336;48.400;10.886;2024-02-21T01:20:44;6.82;;;3.10;;
49450;SDS011;35336;48.400;10.886;2024-02-21T01:21:00;9.00;;;3.17;;
49450;SDS011;35336;48.400;10.886;2024-02-21T01:21:17;8.63;;;2.90;;
49450;SDS011;35336;48.400;10.886;2024-02-21T01:21:33;7.75;;;2.72;;
49450;SDS011;35336;48.400;10.886;2024-02-21T01:21:48;7.17;;;2.67;;
49450;SDS011;35336;48.400;10.886;2024-02-21T01:22:03;6.83;;;2.80;;
49450;SDS011;35336;48.400;10.886;2024-02-21T01:22:19;8.13;;;2.90;;
49450;SDS011;35336;48.400;10.886;2024-02-21T01:22:34;8.40;;;2.70;;
49450;SDS011;35336;48.400;10.886;2024-02-21T01:22:49;8.33;;;2.60;;
49450;SDS011;35336;48.400;10.886;2024-02-21T01:23:04;9.53;;;2.87;;
49450;SDS011;35336;48.400;10.886;2024-02-21T01:23:20;9.60;;;2.80;;
49450;SDS011;35336;48.400;10.886;2024-02-21T01:23:35;9.00;;;2.53;;
49450;SDS011;35336;48.400;10.886;2024-02-21T01:23:51;6.47;;;2.35;;
49450;SDS011;35336;48.400;10.886;2024-02-21T01:24:06;5.47;;;2.33;;
49450;SDS011;35336;48.400;10.886;2024-02-21T01:24:21;6.90;;;2.40;;
49450;SDS011;35336;48.400;10.886;2024-02-21T01:24:37;9.00;;;2.70;;
49450;SDS011;35336;48.400;10.886;2024-02-21T01:24:52;8.75;;;2.88;;
49450;SDS011;35336;48.400;10.886;2024-02-21T01:25:07;6.30;;;2.67;;
49450;SDS011;35336;48.400;10.886;2024-02-21T01:25:23;5.40;;;2.50;;
49450;SDS011;35336;48.400;10.886;2024-02-21T01:25:38;8.13;;;2.70;;
49450;SDS011;35336;48.400;10.886;2024-02-21T01:25:53;9.20;;;2.77;;
49450;SDS011;35336;48.400;10.886;2024-02-21T01:26:09;7.17;;;2.77;;
49450;SDS011;35336;48.400;10.886;2024-02-21T01:26:24;6.67;;;2.73;;
49450;SDS011;35336;48.400;10.886;2024-02-21T01:26:40;7.50;;;2.80;;
49450;SDS011;35336;48.400;10.886;2024-02-21T01:26:57;8.43;;;2.87;;
49450;SDS011;35336;48.400;10.886;2024-02-21T01:27:13;9.50;;;3.13;;
49450;SDS011;35336;48.400;10.886;2024-02-21T01:27:28;9.50;;;3.07;;
49450;SDS011;35336;48.400;10.886;2024-02-21T01:27:43;6.67;;;2.30;;
49450;SDS011;35336;48.400;10.886;2024-02-21T01:27:59;7.30;;;2.80;;
49450;SDS011;35336;48.400;10.886;2024-02-21T01:28:14;7.50;;;3.00;;
49450;SDS011;35336;48.400;10.886;2024-02-21T01:28:29;7.37;;;2.63;;
49450;SDS011;35336;48.400;10.886;2024-02-21T01:28:47;10.30;;;2.75;;
49450;SDS011;35336;48.400;10.886;2024-02-21T01:29:02;9.65;;;2.65;;
49450;SDS011;35336;48.400;10.886;2024-02-21T01:29:17;6.27;;;2.50;;
49450;SDS011;35336;48.400;10.886;2024-02-21T01:29:33;8.63;;;2.67;;
49450;SDS011;35336;48.400;10.886;2024-02-21T01:29:50;9.00;;;2.80;;
49450;SDS011;35336;48.400;10.886;2024-02-21T01:30:06;7.03;;;2.70;;
49450;SDS011;35336;48.400;10.886;2024-02-21T01:30:22;6.93;;;2.63;;
49450;SDS011;35336;48.400;10.886;2024-02-21T01:30:37;8.70;;;2.70;;
49450;SDS011;35336;48.400;10.886;2024-02-21T01:30:52;8.83;;;2.73;;
49450;SDS011;35336;48.400;10.886;2024-02-21T01:31:07;6.73;;;2.60;;
49450;SDS011;35336;48.400;10.886;2024-02-21T01:31:23;6.47;;;2.87;;
49450;SDS011;35336;48.400;10.886;2024-02-21T01:31:38;8.40;;;2.97;;
49450;SDS011;35336;48.400;10.886;2024-02-21T01:31:53;8.00;;;2.72;;
49450;SDS011;35336;48.400;10.886;2024-02-21T01:32:14;9.45;;;2.88;;
49450;SDS011;35336;48.400;10.886;2024-02-21T01:32:29;7.90;;;2.58;;
49450;SDS011;35336;48.400;10.886;2024-02-21T01:32:45;4.73;;;2.30;;